sensor_id;sensor_type;location;lat;lon;timestamp;temperature;humidity
31747;DHT22;18319;48.974;8.462;2022-08-21T00:00:32;17.20;41.70
31747;DHT22;18319;48.974;8.462;2022-08-21T00:03:01;17.10;42.20
31747;DHT22;18319;48.974;8.462;2022-08-21T00:05:33;17.20;42.10
31747;DHT22;18319;48.974;8.462;2022-08-21T00:08:02;17.20;42.00
31747;DHT22;18319;48.974;8.462;2022-08-21T00:10:29;17.20;43.00
31747;DHT22;18319;48.974;8.462;2022-08-21T00:12:56;17.10;42.80
31747;DHT22;18319;48.974;8.462;2022-08-21T00:15:29;17.10;42.40
31747;DHT22;18319;48.974;8.462;2022-08-21T00:17:58;17.00;41.90
31747;DHT22;18319;48.974;8.462;2022-08-21T00:20:25;17.00;42.20
31747;DHT22;18319;48.974;8.462;2022-08-21T00:22:52;17.00;42.50
31747;DHT22;18319;48.974;8.462;2022-08-21T00:25:20;17.00;42.60
31747;DHT22;18319;48.974;8.462;2022-08-21T00:27:47;17.00;42.50
31747;DHT22;18319;48.974;8.462;2022-08-21T00:30:16;17.00;42.60
31747;DHT22;18319;48.974;8.462;2022-08-21T00:32:45;17.00;42.90
31747;DHT22;18319;48.974;8.462;2022-08-21T00:35:17;16.90;42.60
31747;DHT22;18319;48.974;8.462;2022-08-21T00:37:45;17.00;43.00
31747;DHT22;18319;48.974;8.462;2022-08-21T00:40:16;16.90;43.10
31747;DHT22;18319;48.974;8.462;2022-08-21T00:42:44;16.90;43.00
31747;DHT22;18319;48.974;8.462;2022-08-21T00:45:11;16.90;43.50
31747;DHT22;18319;48.974;8.462;2022-08-21T00:47:38;16.90;43.30
31747;DHT22;18319;48.974;8.462;2022-08-21T00:50:12;17.00;43.70
31747;DHT22;18319;48.974;8.462;2022-08-21T00:52:41;17.00;43.20
31747;DHT22;18319;48.974;8.462;2022-08-21T00:55:10;17.00;43.40
31747;DHT22;18319;48.974;8.462;2022-08-21T00:57:44;17.00;43.60
31747;DHT22;18319;48.974;8.462;2022-08-21T01:00:15;17.00;43.60
31747;DHT22;18319;48.974;8.462;2022-08-21T01:02:43;17.00;43.70
31747;DHT22;18319;48.974;8.462;2022-08-21T01:05:10;17.00;43.50
31747;DHT22;18319;48.974;8.462;2022-08-21T01:07:38;16.90;44.00
31747;DHT22;18319;48.974;8.462;2022-08-21T01:10:07;16.90;44.10
31747;DHT22;18319;48.974;8.462;2022-08-21T01:12:34;16.90;43.70
31747;DHT22;18319;48.974;8.462;2022-08-21T01:15:04;17.00;44.30
31747;DHT22;18319;48.974;8.462;2022-08-21T01:17:32;16.90;43.90
31747;DHT22;18319;48.974;8.462;2022-08-21T01:20:04;16.90;44.30
31747;DHT22;18319;48.974;8.462;2022-08-21T01:22:32;16.90;44.40
31747;DHT22;18319;48.974;8.462;2022-08-21T01:24:59;16.80;44.30
31747;DHT22;18319;48.974;8.462;2022-08-21T01:27:26;16.80;44.40
31747;DHT22;18319;48.974;8.462;2022-08-21T01:29:57;16.80;44.70
31747;DHT22;18319;48.974;8.462;2022-08-21T01:32:25;16.80;44.80
31747;DHT22;18319;48.974;8.462;2022-08-21T01:34:52;16.70;45.00
31747;DHT22;18319;48.974;8.462;2022-08-21T01:37:21;16.70;45.10
31747;DHT22;18319;48.974;8.462;2022-08-21T01:39:56;16.60;45.50
31747;DHT22;18319;48.974;8.462;2022-08-21T01:42:24;16.60;45.70
31747;DHT22;18319;48.974;8.462;2022-08-21T01:44:51;16.60;45.60
31747;DHT22;18319;48.974;8.462;2022-08-21T01:47:20;16.50;45.90
31747;DHT22;18319;48.974;8.462;2022-08-21T01:49:46;16.50;46.30
31747;DHT22;18319;48.974;8.462;2022-08-21T01:52:13;16.40;46.80
31747;DHT22;18319;48.974;8.462;2022-08-21T01:54:41;16.40;46.70
31747;DHT22;18319;48.974;8.462;2022-08-21T01:57:13;16.40;47.20
31747;DHT22;18319;48.974;8.462;2022-08-21T01:59:40;16.30;47.40
31747;DHT22;18319;48.974;8.462;2022-08-21T02:02:07;16.40;47.50
31747;DHT22;18319;48.974;8.462;2022-08-21T02:04:34;16.30;47.40
31747;DHT22;18319;48.974;8.462;2022-08-21T02:07:09;16.30;47.80
31747;DHT22;18319;48.974;8.462;2022-08-21T02:09:36;16.20;48.20
31747;DHT22;18319;48.974;8.462;2022-08-21T02:12:04;16.20;48.40
31747;DHT22;18319;48.974;8.462;2022-08-21T02:14:32;16.20;48.60
31747;DHT22;18319;48.974;8.462;2022-08-21T02:17:00;16.10;48.80
31747;DHT22;18319;48.974;8.462;2022-08-21T02:19:27;16.10;49.40
31747;DHT22;18319;48.974;8.462;2022-08-21T02:21:55;16.10;49.30
31747;DHT22;18319;48.974;8.462;2022-08-21T02:24:21;16.00;49.70
31747;DHT22;18319;48.974;8.462;2022-08-21T02:26:50;16.00;50.00
31747;DHT22;18319;48.974;8.462;2022-08-21T02:29:17;16.00;50.90
31747;DHT22;18319;48.974;8.462;2022-08-21T02:31:45;16.00;50.50
31747;DHT22;18319;48.974;8.462;2022-08-21T02:34:14;15.90;50.60
31747;DHT22;18319;48.974;8.462;2022-08-21T02:36:42;15.90;51.10
31747;DHT22;18319;48.974;8.462;2022-08-21T02:39:08;15.90;51.20
31747;DHT22;18319;48.974;8.462;2022-08-21T02:41:35;15.90;50.80
31747;DHT22;18319;48.974;8.462;2022-08-21T02:44:02;15.90;51.40
31747;DHT22;18319;48.974;8.462;2022-08-21T02:46:29;15.80;51.30
31747;DHT22;18319;48.974;8.462;2022-08-21T02:48:58;15.80;51.60
31747;DHT22;18319;48.974;8.462;2022-08-21T02:51:29;15.90;51.70
31747;DHT22;18319;48.974;8.462;2022-08-21T02:53:56;15.80;51.50
31747;DHT22;18319;48.974;8.462;2022-08-21T02:56:23;15.80;51.40
31747;DHT22;18319;48.974;8.462;2022-08-21T02:58:51;15.80;51.40
31747;DHT22;18319;48.974;8.462;2022-08-21T03:01:21;15.80;51.60
31747;DHT22;18319;48.974;8.462;2022-08-21T03:03:48;15.80;51.70
31747;DHT22;18319;48.974;8.462;2022-08-21T03:06:19;15.70;52.00
31747;DHT22;18319;48.974;8.462;2022-08-21T03:08:49;15.70;52.40
31747;DHT22;18319;48.974;8.462;2022-08-21T03:11:18;15.70;52.50
31747;DHT22;18319;48.974;8.462;2022-08-21T03:13:46;15.60;52.80
31747;DHT22;18319;48.974;8.462;2022-08-21T03:16:13;15.60;53.40
31747;DHT22;18319;48.974;8.462;2022-08-21T03:18:40;15.60;53.50
31747;DHT22;18319;48.974;8.462;2022-08-21T03:21:07;15.60;54.10
31747;DHT22;18319;48.974;8.462;2022-08-21T03:23:35;15.50;54.00
31747;DHT22;18319;48.974;8.462;2022-08-21T03:26:03;15.50;54.10
31747;DHT22;18319;48.974;8.462;2022-08-21T03:28:30;15.50;53.90
31747;DHT22;18319;48.974;8.462;2022-08-21T03:30:57;15.40;54.20
31747;DHT22;18319;48.974;8.462;2022-08-21T03:33:23;15.40;54.70
31747;DHT22;18319;48.974;8.462;2022-08-21T03:35:58;15.40;55.30
31747;DHT22;18319;48.974;8.462;2022-08-21T03:38:28;15.30;55.40
31747;DHT22;18319;48.974;8.462;2022-08-21T03:40:57;15.30;56.00
31747;DHT22;18319;48.974;8.462;2022-08-21T03:43:24;15.30;56.50
31747;DHT22;18319;48.974;8.462;2022-08-21T03:45:52;15.30;56.70
31747;DHT22;18319;48.974;8.462;2022-08-21T03:48:19;15.20;56.60
31747;DHT22;18319;48.974;8.462;2022-08-21T03:50:46;15.20;57.10
31747;DHT22;18319;48.974;8.462;2022-08-21T03:53:15;15.20;57.30
31747;DHT22;18319;48.974;8.462;2022-08-21T03:55:42;15.20;57.70
31747;DHT22;18319;48.974;8.462;2022-08-21T03:58:11;15.20;57.50
31747;DHT22;18319;48.974;8.462;2022-08-21T04:00:38;15.10;58.10
31747;DHT22;18319;48.974;8.462;2022-08-21T04:03:05;15.10;57.90
31747;DHT22;18319;48.974;8.462;2022-08-21T04:05:32;15.10;58.20
31747;DHT22;18319;48.974;8.462;2022-08-21T04:08:03;15.10;58.30
31747;DHT22;18319;48.974;8.462;2022-08-21T04:10:33;15.10;58.40
31747;DHT22;18319;48.974;8.462;2022-08-21T04:13:01;15.10;58.50
31747;DHT22;18319;48.974;8.462;2022-08-21T04:15:30;15.10;58.50
31747;DHT22;18319;48.974;8.462;2022-08-21T04:17:56;15.10;58.80
31747;DHT22;18319;48.974;8.462;2022-08-21T04:20:24;15.00;58.70
31747;DHT22;18319;48.974;8.462;2022-08-21T04:22:52;15.00;58.90
31747;DHT22;18319;48.974;8.462;2022-08-21T04:25:22;15.00;59.10
31747;DHT22;18319;48.974;8.462;2022-08-21T04:27:49;15.00;59.20
31747;DHT22;18319;48.974;8.462;2022-08-21T04:30:16;14.90;59.40
31747;DHT22;18319;48.974;8.462;2022-08-21T04:32:46;14.90;59.60
31747;DHT22;18319;48.974;8.462;2022-08-21T04:35:20;14.90;59.70
31747;DHT22;18319;48.974;8.462;2022-08-21T04:37:47;14.90;59.50
31747;DHT22;18319;48.974;8.462;2022-08-21T04:40:15;14.90;59.70
31747;DHT22;18319;48.974;8.462;2022-08-21T04:42:44;14.80;59.70
31747;DHT22;18319;48.974;8.462;2022-08-21T04:45:18;14.80;59.80
31747;DHT22;18319;48.974;8.462;2022-08-21T04:47:48;14.80;60.00
31747;DHT22;18319;48.974;8.462;2022-08-21T04:50:15;14.80;60.20
31747;DHT22;18319;48.974;8.462;2022-08-21T04:52:43;14.80;60.40
31747;DHT22;18319;48.974;8.462;2022-08-21T04:55:11;14.80;60.50
31747;DHT22;18319;48.974;8.462;2022-08-21T04:57:39;14.90;60.40
31747;DHT22;18319;48.974;8.462;2022-08-21T05:00:07;14.90;60.40
31747;DHT22;18319;48.974;8.462;2022-08-21T05:02:36;14.90;60.40
31747;DHT22;18319;48.974;8.462;2022-08-21T05:05:06;14.90;60.40
31747;DHT22;18319;48.974;8.462;2022-08-21T05:07:33;14.90;60.50
31747;DHT22;18319;48.974;8.462;2022-08-21T05:10:01;15.00;60.60
31747;DHT22;18319;48.974;8.462;2022-08-21T05:12:28;15.00;60.60
31747;DHT22;18319;48.974;8.462;2022-08-21T05:14:55;15.00;60.60
31747;DHT22;18319;48.974;8.462;2022-08-21T05:17:21;15.10;60.50
31747;DHT22;18319;48.974;8.462;2022-08-21T05:19:49;15.10;60.50
31747;DHT22;18319;48.974;8.462;2022-08-21T05:22:21;15.20;60.40
31747;DHT22;18319;48.974;8.462;2022-08-21T05:24:50;15.30;60.00
31747;DHT22;18319;48.974;8.462;2022-08-21T05:27:17;15.30;59.80
31747;DHT22;18319;48.974;8.462;2022-08-21T05:29:43;15.40;59.50
31747;DHT22;18319;48.974;8.462;2022-08-21T05:32:11;15.40;59.20
31747;DHT22;18319;48.974;8.462;2022-08-21T05:34:38;15.50;58.90
31747;DHT22;18319;48.974;8.462;2022-08-21T05:37:05;15.60;58.70
31747;DHT22;18319;48.974;8.462;2022-08-21T05:39:38;15.60;58.40
31747;DHT22;18319;48.974;8.462;2022-08-21T05:42:05;15.60;58.00
31747;DHT22;18319;48.974;8.462;2022-08-21T05:44:32;15.70;57.90
31747;DHT22;18319;48.974;8.462;2022-08-21T05:47:03;15.70;57.50
31747;DHT22;18319;48.974;8.462;2022-08-21T05:49:30;15.80;57.30
31747;DHT22;18319;48.974;8.462;2022-08-21T05:51:57;15.90;56.60
31747;DHT22;18319;48.974;8.462;2022-08-21T05:54:24;15.90;56.60
31747;DHT22;18319;48.974;8.462;2022-08-21T05:56:52;16.00;56.40
31747;DHT22;18319;48.974;8.462;2022-08-21T05:59:19;16.10;57.10
31747;DHT22;18319;48.974;8.462;2022-08-21T06:01:46;16.20;56.20
31747;DHT22;18319;48.974;8.462;2022-08-21T06:04:13;16.20;55.00
31747;DHT22;18319;48.974;8.462;2022-08-21T06:06:40;16.30;55.50
31747;DHT22;18319;48.974;8.462;2022-08-21T06:09:07;16.40;55.20
31747;DHT22;18319;48.974;8.462;2022-08-21T06:11:34;16.40;54.80
31747;DHT22;18319;48.974;8.462;2022-08-21T06:14:02;16.50;54.40
31747;DHT22;18319;48.974;8.462;2022-08-21T06:16:31;16.60;54.50
31747;DHT22;18319;48.974;8.462;2022-08-21T06:18:58;16.70;54.60
31747;DHT22;18319;48.974;8.462;2022-08-21T06:21:25;16.70;54.10
31747;DHT22;18319;48.974;8.462;2022-08-21T06:23:52;16.80;53.80
31747;DHT22;18319;48.974;8.462;2022-08-21T06:26:23;16.90;54.10
31747;DHT22;18319;48.974;8.462;2022-08-21T06:28:50;17.00;53.30
31747;DHT22;18319;48.974;8.462;2022-08-21T06:31:20;17.10;52.60
31747;DHT22;18319;48.974;8.462;2022-08-21T06:33:47;17.10;52.70
31747;DHT22;18319;48.974;8.462;2022-08-21T06:36:15;17.20;52.40
31747;DHT22;18319;48.974;8.462;2022-08-21T06:38:42;17.20;52.00
31747;DHT22;18319;48.974;8.462;2022-08-21T06:41:11;17.20;52.30
31747;DHT22;18319;48.974;8.462;2022-08-21T06:43:38;17.20;52.40
31747;DHT22;18319;48.974;8.462;2022-08-21T06:46:05;17.30;51.90
31747;DHT22;18319;48.974;8.462;2022-08-21T06:48:33;17.30;52.10
31747;DHT22;18319;48.974;8.462;2022-08-21T06:51:00;17.40;52.40
31747;DHT22;18319;48.974;8.462;2022-08-21T06:53:28;17.40;53.10
31747;DHT22;18319;48.974;8.462;2022-08-21T06:55:56;17.40;52.30
31747;DHT22;18319;48.974;8.462;2022-08-21T06:58:23;17.50;51.00
31747;DHT22;18319;48.974;8.462;2022-08-21T07:00:50;17.50;51.30
31747;DHT22;18319;48.974;8.462;2022-08-21T07:03:22;17.50;50.80
31747;DHT22;18319;48.974;8.462;2022-08-21T07:05:52;17.60;50.50
31747;DHT22;18319;48.974;8.462;2022-08-21T07:08:19;17.60;49.80
31747;DHT22;18319;48.974;8.462;2022-08-21T07:10:47;17.70;49.70
31747;DHT22;18319;48.974;8.462;2022-08-21T07:13:15;17.70;49.50
31747;DHT22;18319;48.974;8.462;2022-08-21T07:15:42;17.80;48.30
31747;DHT22;18319;48.974;8.462;2022-08-21T07:18:10;17.90;47.90
31747;DHT22;18319;48.974;8.462;2022-08-21T07:20:37;18.00;47.90
31747;DHT22;18319;48.974;8.462;2022-08-21T07:23:08;18.10;48.20
31747;DHT22;18319;48.974;8.462;2022-08-21T07:25:37;18.30;47.30
31747;DHT22;18319;48.974;8.462;2022-08-21T07:28:04;18.60;47.40
31747;DHT22;18319;48.974;8.462;2022-08-21T07:30:31;19.20;44.60
31747;DHT22;18319;48.974;8.462;2022-08-21T07:32:58;19.90;43.10
31747;DHT22;18319;48.974;8.462;2022-08-21T07:35:25;20.70;40.80
31747;DHT22;18319;48.974;8.462;2022-08-21T07:37:53;21.70;39.00
31747;DHT22;18319;48.974;8.462;2022-08-21T07:40:22;22.70;34.20
31747;DHT22;18319;48.974;8.462;2022-08-21T07:42:49;23.40;30.80
31747;DHT22;18319;48.974;8.462;2022-08-21T07:45:18;24.30;30.40
31747;DHT22;18319;48.974;8.462;2022-08-21T07:47:46;25.00;27.60
31747;DHT22;18319;48.974;8.462;2022-08-21T07:50:13;25.60;26.30
31747;DHT22;18319;48.974;8.462;2022-08-21T07:52:41;26.10;24.80
31747;DHT22;18319;48.974;8.462;2022-08-21T07:55:09;26.40;24.60
31747;DHT22;18319;48.974;8.462;2022-08-21T07:57:41;26.80;24.70
31747;DHT22;18319;48.974;8.462;2022-08-21T08:00:10;27.20;23.10
31747;DHT22;18319;48.974;8.462;2022-08-21T08:02:38;27.60;22.20
31747;DHT22;18319;48.974;8.462;2022-08-21T08:05:08;27.90;22.10
31747;DHT22;18319;48.974;8.462;2022-08-21T08:07:35;28.30;21.20
31747;DHT22;18319;48.974;8.462;2022-08-21T08:10:04;28.40;21.00
31747;DHT22;18319;48.974;8.462;2022-08-21T08:12:43;28.70;19.50
31747;DHT22;18319;48.974;8.462;2022-08-21T08:15:12;28.80;20.10
31747;DHT22;18319;48.974;8.462;2022-08-21T08:17:40;29.00;20.30
31747;DHT22;18319;48.974;8.462;2022-08-21T08:20:09;29.30;18.10
31747;DHT22;18319;48.974;8.462;2022-08-21T08:22:37;29.20;17.80
31747;DHT22;18319;48.974;8.462;2022-08-21T08:25:06;29.30;17.00
31747;DHT22;18319;48.974;8.462;2022-08-21T08:27:33;29.30;18.30
31747;DHT22;18319;48.974;8.462;2022-08-21T08:30:02;29.50;17.20
31747;DHT22;18319;48.974;8.462;2022-08-21T08:32:29;29.30;16.50
31747;DHT22;18319;48.974;8.462;2022-08-21T08:34:56;29.20;17.70
31747;DHT22;18319;48.974;8.462;2022-08-21T08:37:22;29.30;18.20
31747;DHT22;18319;48.974;8.462;2022-08-21T08:39:49;29.60;18.00
31747;DHT22;18319;48.974;8.462;2022-08-21T08:42:22;29.70;17.70
31747;DHT22;18319;48.974;8.462;2022-08-21T08:44:55;29.90;17.40
31747;DHT22;18319;48.974;8.462;2022-08-21T08:47:25;30.00;16.30
31747;DHT22;18319;48.974;8.462;2022-08-21T08:49:58;30.00;16.10
31747;DHT22;18319;48.974;8.462;2022-08-21T08:52:28;30.00;15.80
31747;DHT22;18319;48.974;8.462;2022-08-21T08:55:01;30.10;15.90
31747;DHT22;18319;48.974;8.462;2022-08-21T08:57:29;30.10;14.50
31747;DHT22;18319;48.974;8.462;2022-08-21T08:59:59;30.00;14.70
31747;DHT22;18319;48.974;8.462;2022-08-21T09:02:27;29.80;14.40
31747;DHT22;18319;48.974;8.462;2022-08-21T09:04:55;29.70;17.00
31747;DHT22;18319;48.974;8.462;2022-08-21T09:07:32;29.70;15.80
31747;DHT22;18319;48.974;8.462;2022-08-21T09:10:11;29.50;17.00
31747;DHT22;18319;48.974;8.462;2022-08-21T09:12:49;29.30;15.60
31747;DHT22;18319;48.974;8.462;2022-08-21T09:15:23;29.30;17.50
31747;DHT22;18319;48.974;8.462;2022-08-21T09:18:05;29.20;15.60
31747;DHT22;18319;48.974;8.462;2022-08-21T09:20:40;29.30;16.20
31747;DHT22;18319;48.974;8.462;2022-08-21T09:23:17;29.30;16.20
31747;DHT22;18319;48.974;8.462;2022-08-21T09:25:53;29.20;15.30
31747;DHT22;18319;48.974;8.462;2022-08-21T09:28:21;29.20;16.10
31747;DHT22;18319;48.974;8.462;2022-08-21T09:30:49;29.10;17.00
31747;DHT22;18319;48.974;8.462;2022-08-21T09:33:18;29.10;17.80
31747;DHT22;18319;48.974;8.462;2022-08-21T09:35:51;29.10;17.00
31747;DHT22;18319;48.974;8.462;2022-08-21T09:38:30;29.00;16.50
31747;DHT22;18319;48.974;8.462;2022-08-21T09:41:01;28.50;16.50
31747;DHT22;18319;48.974;8.462;2022-08-21T09:43:28;28.20;16.50
31747;DHT22;18319;48.974;8.462;2022-08-21T09:46:06;27.90;17.10
31747;DHT22;18319;48.974;8.462;2022-08-21T09:48:44;27.30;17.90
31747;DHT22;18319;48.974;8.462;2022-08-21T09:51:14;27.20;20.30
31747;DHT22;18319;48.974;8.462;2022-08-21T09:53:45;27.00;19.80
31747;DHT22;18319;48.974;8.462;2022-08-21T09:56:27;27.00;19.80
31747;DHT22;18319;48.974;8.462;2022-08-21T09:59:14;26.90;19.40
31747;DHT22;18319;48.974;8.462;2022-08-21T10:01:44;26.80;19.70
31747;DHT22;18319;48.974;8.462;2022-08-21T10:04:13;26.70;18.80
31747;DHT22;18319;48.974;8.462;2022-08-21T10:06:39;26.40;18.50
31747;DHT22;18319;48.974;8.462;2022-08-21T10:09:08;26.10;19.00
31747;DHT22;18319;48.974;8.462;2022-08-21T10:11:36;25.90;19.30
31747;DHT22;18319;48.974;8.462;2022-08-21T10:14:11;25.70;18.50
31747;DHT22;18319;48.974;8.462;2022-08-21T10:16:49;25.50;20.80
31747;DHT22;18319;48.974;8.462;2022-08-21T10:19:26;25.50;21.00
31747;DHT22;18319;48.974;8.462;2022-08-21T10:22:12;25.40;20.90
31747;DHT22;18319;48.974;8.462;2022-08-21T10:24:47;25.40;20.20
31747;DHT22;18319;48.974;8.462;2022-08-21T10:27:25;25.40;20.80
31747;DHT22;18319;48.974;8.462;2022-08-21T10:29:59;25.40;22.30
31747;DHT22;18319;48.974;8.462;2022-08-21T10:32:37;25.40;20.90
31747;DHT22;18319;48.974;8.462;2022-08-21T10:35:12;25.50;19.70
31747;DHT22;18319;48.974;8.462;2022-08-21T10:37:47;25.70;18.80
31747;DHT22;18319;48.974;8.462;2022-08-21T10:40:23;25.60;18.40
31747;DHT22;18319;48.974;8.462;2022-08-21T10:43:15;25.60;19.20
31747;DHT22;18319;48.974;8.462;2022-08-21T10:45:55;25.40;19.40
31747;DHT22;18319;48.974;8.462;2022-08-21T10:48:28;25.40;19.70
31747;DHT22;18319;48.974;8.462;2022-08-21T10:51:03;25.20;19.30
31747;DHT22;18319;48.974;8.462;2022-08-21T10:53:41;25.30;21.20
31747;DHT22;18319;48.974;8.462;2022-08-21T10:56:16;25.20;19.00
31747;DHT22;18319;48.974;8.462;2022-08-21T10:58:57;25.10;18.60
31747;DHT22;18319;48.974;8.462;2022-08-21T11:01:32;25.00;19.80
31747;DHT22;18319;48.974;8.462;2022-08-21T11:04:11;24.90;19.40
31747;DHT22;18319;48.974;8.462;2022-08-21T11:06:44;24.90;19.60
31747;DHT22;18319;48.974;8.462;2022-08-21T11:09:17;25.00;20.00
31747;DHT22;18319;48.974;8.462;2022-08-21T11:11:48;25.00;18.80
31747;DHT22;18319;48.974;8.462;2022-08-21T11:14:23;25.10;19.30
31747;DHT22;18319;48.974;8.462;2022-08-21T11:16:56;25.20;19.80
31747;DHT22;18319;48.974;8.462;2022-08-21T11:19:30;25.20;19.40
31747;DHT22;18319;48.974;8.462;2022-08-21T11:22:05;25.20;20.00
31747;DHT22;18319;48.974;8.462;2022-08-21T11:24:37;25.30;19.00
31747;DHT22;18319;48.974;8.462;2022-08-21T11:27:13;25.30;18.80
31747;DHT22;18319;48.974;8.462;2022-08-21T11:29:44;25.30;19.70
31747;DHT22;18319;48.974;8.462;2022-08-21T11:32:42;25.40;19.20
31747;DHT22;18319;48.974;8.462;2022-08-21T11:35:25;25.40;18.10
31747;DHT22;18319;48.974;8.462;2022-08-21T11:38:08;25.40;18.10
31747;DHT22;18319;48.974;8.462;2022-08-21T11:40:49;25.50;19.00
31747;DHT22;18319;48.974;8.462;2022-08-21T11:43:22;25.50;18.80
31747;DHT22;18319;48.974;8.462;2022-08-21T11:45:59;25.50;19.50
31747;DHT22;18319;48.974;8.462;2022-08-21T11:48:36;25.50;18.20
31747;DHT22;18319;48.974;8.462;2022-08-21T11:51:18;25.50;17.80
31747;DHT22;18319;48.974;8.462;2022-08-21T11:53:51;25.50;18.20
31747;DHT22;18319;48.974;8.462;2022-08-21T11:56:25;25.50;19.70
31747;DHT22;18319;48.974;8.462;2022-08-21T11:58:56;25.50;17.70
31747;DHT22;18319;48.974;8.462;2022-08-21T12:01:27;25.60;18.40
31747;DHT22;18319;48.974;8.462;2022-08-21T12:03:59;25.60;17.70
31747;DHT22;18319;48.974;8.462;2022-08-21T12:06:31;25.60;17.70
31747;DHT22;18319;48.974;8.462;2022-08-21T12:09:03;25.60;18.10
31747;DHT22;18319;48.974;8.462;2022-08-21T12:11:30;25.70;17.50
31747;DHT22;18319;48.974;8.462;2022-08-21T12:14:00;25.70;17.80
31747;DHT22;18319;48.974;8.462;2022-08-21T12:16:39;25.80;17.30
31747;DHT22;18319;48.974;8.462;2022-08-21T12:19:09;25.90;17.40
31747;DHT22;18319;48.974;8.462;2022-08-21T12:21:49;25.90;17.90
31747;DHT22;18319;48.974;8.462;2022-08-21T12:24:20;25.90;17.40
31747;DHT22;18319;48.974;8.462;2022-08-21T12:27:00;25.90;17.20
31747;DHT22;18319;48.974;8.462;2022-08-21T12:29:30;25.90;18.30
31747;DHT22;18319;48.974;8.462;2022-08-21T12:32:00;25.80;16.40
31747;DHT22;18319;48.974;8.462;2022-08-21T12:34:36;25.80;16.70
31747;DHT22;18319;48.974;8.462;2022-08-21T12:37:06;25.70;16.30
31747;DHT22;18319;48.974;8.462;2022-08-21T12:39:37;25.70;16.40
31747;DHT22;18319;48.974;8.462;2022-08-21T12:42:17;25.70;15.10
31747;DHT22;18319;48.974;8.462;2022-08-21T12:44:49;25.60;15.70
31747;DHT22;18319;48.974;8.462;2022-08-21T12:47:25;25.50;16.40
31747;DHT22;18319;48.974;8.462;2022-08-21T12:49:58;25.50;16.60
31747;DHT22;18319;48.974;8.462;2022-08-21T12:52:30;25.60;16.80
31747;DHT22;18319;48.974;8.462;2022-08-21T12:55:01;25.60;16.10
31747;DHT22;18319;48.974;8.462;2022-08-21T12:57:29;25.60;17.00
31747;DHT22;18319;48.974;8.462;2022-08-21T12:59:59;25.60;16.40
31747;DHT22;18319;48.974;8.462;2022-08-21T13:02:30;25.70;17.60
31747;DHT22;18319;48.974;8.462;2022-08-21T13:04:58;25.70;16.80
31747;DHT22;18319;48.974;8.462;2022-08-21T13:07:29;25.80;16.60
31747;DHT22;18319;48.974;8.462;2022-08-21T13:09:58;25.80;16.00
31747;DHT22;18319;48.974;8.462;2022-08-21T13:12:27;25.80;16.90
31747;DHT22;18319;48.974;8.462;2022-08-21T13:14:56;25.80;16.30
31747;DHT22;18319;48.974;8.462;2022-08-21T13:17:25;25.80;16.90
31747;DHT22;18319;48.974;8.462;2022-08-21T13:19:57;25.90;16.30
31747;DHT22;18319;48.974;8.462;2022-08-21T13:22:25;25.80;15.60
31747;DHT22;18319;48.974;8.462;2022-08-21T13:24:52;25.80;16.20
31747;DHT22;18319;48.974;8.462;2022-08-21T13:27:26;25.80;15.60
31747;DHT22;18319;48.974;8.462;2022-08-21T13:30:03;25.80;15.50
31747;DHT22;18319;48.974;8.462;2022-08-21T13:32:33;25.80;15.80
31747;DHT22;18319;48.974;8.462;2022-08-21T13:35:11;25.80;16.20
31747;DHT22;18319;48.974;8.462;2022-08-21T13:37:42;25.80;15.90
31747;DHT22;18319;48.974;8.462;2022-08-21T13:40:15;25.70;14.70
31747;DHT22;18319;48.974;8.462;2022-08-21T13:42:46;25.70;15.00
31747;DHT22;18319;48.974;8.462;2022-08-21T13:45:17;25.70;15.90
31747;DHT22;18319;48.974;8.462;2022-08-21T13:47:46;25.60;15.40
31747;DHT22;18319;48.974;8.462;2022-08-21T13:50:15;25.70;16.60
31747;DHT22;18319;48.974;8.462;2022-08-21T13:53:01;25.70;17.00
31747;DHT22;18319;48.974;8.462;2022-08-21T13:55:36;25.70;16.50
31747;DHT22;18319;48.974;8.462;2022-08-21T13:58:06;25.70;15.60
31747;DHT22;18319;48.974;8.462;2022-08-21T14:00:35;25.70;16.00
31747;DHT22;18319;48.974;8.462;2022-08-21T14:03:11;25.70;15.00
31747;DHT22;18319;48.974;8.462;2022-08-21T14:05:44;25.70;15.60
31747;DHT22;18319;48.974;8.462;2022-08-21T14:08:14;25.70;15.60
31747;DHT22;18319;48.974;8.462;2022-08-21T14:10:44;25.70;16.00
31747;DHT22;18319;48.974;8.462;2022-08-21T14:13:29;25.80;16.30
31747;DHT22;18319;48.974;8.462;2022-08-21T14:15:59;25.90;15.50
31747;DHT22;18319;48.974;8.462;2022-08-21T14:18:26;25.80;15.10
31747;DHT22;18319;48.974;8.462;2022-08-21T14:21:04;25.80;14.50
31747;DHT22;18319;48.974;8.462;2022-08-21T14:23:36;25.90;14.90
31747;DHT22;18319;48.974;8.462;2022-08-21T14:26:06;25.80;16.20
31747;DHT22;18319;48.974;8.462;2022-08-21T14:28:39;25.70;14.40
31747;DHT22;18319;48.974;8.462;2022-08-21T14:31:14;25.70;15.30
31747;DHT22;18319;48.974;8.462;2022-08-21T14:33:42;25.60;15.20
31747;DHT22;18319;48.974;8.462;2022-08-21T14:36:10;25.60;15.10
31747;DHT22;18319;48.974;8.462;2022-08-21T14:38:38;25.70;14.80
31747;DHT22;18319;48.974;8.462;2022-08-21T14:41:13;25.70;14.70
31747;DHT22;18319;48.974;8.462;2022-08-21T14:43:43;25.70;14.60
31747;DHT22;18319;48.974;8.462;2022-08-21T14:46:12;25.70;15.20
31747;DHT22;18319;48.974;8.462;2022-08-21T14:48:39;25.70;14.60
31747;DHT22;18319;48.974;8.462;2022-08-21T14:51:06;25.70;14.40
31747;DHT22;18319;48.974;8.462;2022-08-21T14:53:35;25.70;14.60
31747;DHT22;18319;48.974;8.462;2022-08-21T14:56:04;25.70;15.50
31747;DHT22;18319;48.974;8.462;2022-08-21T14:58:36;25.70;15.30
31747;DHT22;18319;48.974;8.462;2022-08-21T15:01:06;25.70;15.40
31747;DHT22;18319;48.974;8.462;2022-08-21T15:03:34;25.60;14.50
31747;DHT22;18319;48.974;8.462;2022-08-21T15:06:02;25.60;14.40
31747;DHT22;18319;48.974;8.462;2022-08-21T15:08:29;25.60;15.40
31747;DHT22;18319;48.974;8.462;2022-08-21T15:10:58;25.60;15.50
31747;DHT22;18319;48.974;8.462;2022-08-21T15:13:25;25.60;15.20
31747;DHT22;18319;48.974;8.462;2022-08-21T15:15:52;25.60;14.40
31747;DHT22;18319;48.974;8.462;2022-08-21T15:18:21;25.60;14.00
31747;DHT22;18319;48.974;8.462;2022-08-21T15:20:49;25.60;14.50
31747;DHT22;18319;48.974;8.462;2022-08-21T15:23:16;25.60;14.30
31747;DHT22;18319;48.974;8.462;2022-08-21T15:25:45;25.60;14.20
31747;DHT22;18319;48.974;8.462;2022-08-21T15:28:14;25.60;13.90
31747;DHT22;18319;48.974;8.462;2022-08-21T15:30:42;25.60;14.40
31747;DHT22;18319;48.974;8.462;2022-08-21T15:33:09;25.60;14.30
31747;DHT22;18319;48.974;8.462;2022-08-21T15:35:38;25.60;14.10
31747;DHT22;18319;48.974;8.462;2022-08-21T15:38:05;25.60;13.90
31747;DHT22;18319;48.974;8.462;2022-08-21T15:40:33;25.60;15.00
31747;DHT22;18319;48.974;8.462;2022-08-21T15:43:02;25.60;15.80
31747;DHT22;18319;48.974;8.462;2022-08-21T15:45:30;25.50;16.10
31747;DHT22;18319;48.974;8.462;2022-08-21T15:47:57;25.50;15.10